createdAt,value
2022-07-25T00:02:11.700Z,50.07
2022-07-25T00:04:44.934Z,50.29
2022-07-25T00:07:13.152Z,50.15
2022-07-25T00:09:44.599Z,50.43
2022-07-25T00:12:12.868Z,50.53
2022-07-25T00:14:41.713Z,50.28
2022-07-25T00:17:08.424Z,50.42
2022-07-25T00:19:35.104Z,50.50
2022-07-25T00:22:01.709Z,51.25
2022-07-25T00:24:28.253Z,50.61
2022-07-25T00:27:02.928Z,50.82
2022-07-25T00:29:29.731Z,50.91
2022-07-25T00:31:58.245Z,51.25
2022-07-25T00:34:24.824Z,51.04
2022-07-25T00:36:56.110Z,50.95
2022-07-25T00:40:34.411Z,51.56
2022-07-25T00:43:01.110Z,51.88
2022-07-25T00:45:31.366Z,51.19
2022-07-25T00:47:57.987Z,51.99
2022-07-25T00:50:24.629Z,51.81
2022-07-25T00:52:53.464Z,52.02
2022-07-25T00:55:24.573Z,51.82
2022-07-25T00:57:53.255Z,52.15
2022-07-25T01:00:23.778Z,51.69
2022-07-25T01:02:53.272Z,52.28
2022-07-25T01:05:19.855Z,52.70
2022-07-25T01:07:50.788Z,52.29
2022-07-25T01:10:18.262Z,52.00
2022-07-25T01:12:54.062Z,52.35
2022-07-25T01:15:25.217Z,52.75
2022-07-25T01:17:52.047Z,52.10
2022-07-25T01:20:22.684Z,52.22
2022-07-25T01:22:49.766Z,52.95
2022-07-25T01:25:17.500Z,53.31
2022-07-25T01:27:44.337Z,53.11
2022-07-25T01:30:14.049Z,53.35
2022-07-25T01:32:51.703Z,53.25
2022-07-25T01:35:19.936Z,53.40
2022-07-25T01:37:49.254Z,53.49
2022-07-25T01:40:30.813Z,53.86
2022-07-25T01:43:22.150Z,53.74
2022-07-25T01:45:53.605Z,53.86
2022-07-25T01:48:22.498Z,54.16
2022-07-25T01:50:51.436Z,53.90
2022-07-25T01:53:19.110Z,53.61
2022-07-25T01:55:49.287Z,53.76
2022-07-25T01:58:19.310Z,54.42
2022-07-25T02:00:53.396Z,54.39
2022-07-25T02:03:36.233Z,53.99
2022-07-25T02:06:09.879Z,54.57
2022-07-25T02:08:41.259Z,54.31
2022-07-25T02:11:07.914Z,54.11
2022-07-25T02:13:34.619Z,54.84
2022-07-25T02:16:07.191Z,54.24
2022-07-25T02:18:42.407Z,54.48
2022-07-25T02:21:13.754Z,54.92
2022-07-25T02:23:41.302Z,54.48
2022-07-25T02:26:07.868Z,55.19
2022-07-25T02:28:35.689Z,54.96
2022-07-25T02:31:04.451Z,55.00
2022-07-25T02:33:33.937Z,54.94
2022-07-25T02:36:10.719Z,54.78
2022-07-25T02:38:41.992Z,54.72
2022-07-25T02:41:11.601Z,55.18
2022-07-25T02:43:40.721Z,55.08
2022-07-25T02:46:08.571Z,54.97
2022-07-25T02:48:36.352Z,56.05
2022-07-25T02:51:06.265Z,56.39
2022-07-25T02:53:55.966Z,56.51
2022-07-25T02:56:23.796Z,56.60
2022-07-25T02:58:52.260Z,57.25
2022-07-25T03:01:20.943Z,57.13
2022-07-25T03:03:51.931Z,57.71
2022-07-25T03:06:19.694Z,57.90
2022-07-25T03:08:47.242Z,57.23
2022-07-25T03:11:16.890Z,57.73
2022-07-25T03:13:56.619Z,57.78
2022-07-25T03:16:29.047Z,57.71
2022-07-25T03:18:57.097Z,57.62
2022-07-25T03:21:26.324Z,58.30
2022-07-25T03:23:53.039Z,57.84
2022-07-25T03:26:20.162Z,57.89
2022-07-25T03:28:46.754Z,57.45
2022-07-25T03:31:13.300Z,57.79
2022-07-25T03:33:42.142Z,57.36
2022-07-25T03:36:10.322Z,57.78
2022-07-25T03:38:39.986Z,57.85
2022-07-25T03:41:06.628Z,57.90
2022-07-25T03:43:34.471Z,57.70
2022-07-25T03:46:01.028Z,57.37
2022-07-25T03:48:30.392Z,58.23
2022-07-25T03:51:03.561Z,58.33
2022-07-25T03:53:33.713Z,57.84
2022-07-25T03:56:00.371Z,58.04
2022-07-25T03:58:26.935Z,58.01
2022-07-25T04:00:58.813Z,58.20
2022-07-25T04:03:25.393Z,58.32
2022-07-25T04:05:54.424Z,58.43
2022-07-25T04:08:24.569Z,58.50
2022-07-25T04:10:53.858Z,58.53
2022-07-25T04:13:22.900Z,58.63
2022-07-25T04:15:52.001Z,58.65
2022-07-25T04:18:25.689Z,58.63
2022-07-25T04:20:55.395Z,58.95
2022-07-25T04:23:21.925Z,59.46
2022-07-25T04:25:48.442Z,58.96
2022-07-25T04:28:18.434Z,58.82
2022-07-25T04:30:45.515Z,59.05
2022-07-25T04:33:15.638Z,58.68
2022-07-25T04:35:43.613Z,59.02
2022-07-25T04:38:13.003Z,58.88
2022-07-25T04:40:40.104Z,59.04
2022-07-25T04:43:09.807Z,59.17
2022-07-25T04:45:39.022Z,58.66
2022-07-25T04:48:08.881Z,58.69
2022-07-25T04:50:35.563Z,58.22
2022-07-25T04:53:08.044Z,58.59
2022-07-25T04:55:36.286Z,58.13
2022-07-25T04:58:05.990Z,58.03
2022-07-25T05:00:33.521Z,57.76
2022-07-25T05:03:05.035Z,57.83
2022-07-25T05:05:31.682Z,57.64
2022-07-25T05:08:00.567Z,57.37
2022-07-25T05:10:29.879Z,57.00
2022-07-25T05:12:56.471Z,56.86
2022-07-25T05:15:26.892Z,57.17
2022-07-25T05:17:59.278Z,57.09
2022-07-25T05:20:34.605Z,57.08
2022-07-25T05:23:01.191Z,56.79
2022-07-25T05:25:29.283Z,56.77
2022-07-25T05:28:00.550Z,56.89
2022-07-25T05:30:27.276Z,56.42
2022-07-25T05:32:54.107Z,56.43
2022-07-25T05:35:22.746Z,56.01
2022-07-25T05:37:49.424Z,56.13
2022-07-25T05:40:17.563Z,55.55
2022-07-25T05:42:44.367Z,55.55
2022-07-25T05:45:11.419Z,55.81
2022-07-25T05:47:40.677Z,55.97
2022-07-25T05:50:10.215Z,55.63
2022-07-25T05:52:36.980Z,55.31
2022-07-25T05:55:06.143Z,54.76
2022-07-25T05:57:35.050Z,54.25
2022-07-25T06:00:02.196Z,53.37
2022-07-25T06:02:29.025Z,53.70
2022-07-25T06:04:58.960Z,53.23
2022-07-25T06:07:28.028Z,53.56
2022-07-25T06:09:57.163Z,52.85
2022-07-25T06:12:24.394Z,52.45
2022-07-25T06:14:53.892Z,52.51
2022-07-25T06:17:30.498Z,52.60
2022-07-25T06:19:58.911Z,52.06
2022-07-25T06:22:25.576Z,51.44
2022-07-25T06:24:54.586Z,50.92
2022-07-25T06:27:28.891Z,50.49
2022-07-25T06:29:56.127Z,50.29
2022-07-25T06:32:25.426Z,49.95
2022-07-25T06:34:56.237Z,49.49
2022-07-25T06:37:22.912Z,49.40
2022-07-25T06:39:53.029Z,49.09
2022-07-25T06:42:19.872Z,49.06
2022-07-25T06:44:46.514Z,48.08
2022-07-25T06:47:13.347Z,48.19
2022-07-25T06:49:45.072Z,47.93
2022-07-25T06:52:14.136Z,47.63
2022-07-25T06:54:40.879Z,46.89
2022-07-25T06:57:09.024Z,46.66
2022-07-25T06:59:35.781Z,46.65
2022-07-25T07:02:05.002Z,46.27
2022-07-25T07:04:31.901Z,45.72
2022-07-25T07:07:03.808Z,45.71
2022-07-25T07:09:33.447Z,44.70
2022-07-25T07:12:00.141Z,44.15
2022-07-25T07:14:27.087Z,43.92
2022-07-25T07:16:53.866Z,44.02
2022-07-25T07:19:20.643Z,43.21
2022-07-25T07:21:59.540Z,42.55
2022-07-25T07:24:26.447Z,42.51
2022-07-25T07:26:56.878Z,42.32
2022-07-25T07:29:27.409Z,41.99
2022-07-25T07:31:54.393Z,42.65
2022-07-25T07:34:21.559Z,41.41
2022-07-25T07:36:54.600Z,40.93
2022-07-25T07:39:21.340Z,40.26
2022-07-25T07:41:48.077Z,40.70
2022-07-25T07:44:16.077Z,39.98
2022-07-25T07:46:42.982Z,40.05
2022-07-25T07:49:17.965Z,39.81
2022-07-25T07:51:44.855Z,38.81
2022-07-25T07:54:33.045Z,38.47
2022-07-25T07:57:05.153Z,38.48
2022-07-25T07:59:34.168Z,37.92
2022-07-25T08:02:00.807Z,37.63
2022-07-25T08:04:28.886Z,37.49
2022-07-25T08:06:55.540Z,36.55
2022-07-25T08:09:22.220Z,36.76
2022-07-25T08:11:48.847Z,36.83
2022-07-25T08:14:20.560Z,35.94
2022-07-25T08:16:47.282Z,35.52
2022-07-25T08:19:14.082Z,34.51
2022-07-25T08:21:42.964Z,33.83
2022-07-25T08:24:16.951Z,34.60
2022-07-25T08:26:48.919Z,33.66
2022-07-25T08:29:21.235Z,33.39
2022-07-25T08:31:52.889Z,33.19
2022-07-25T08:34:22.377Z,32.45
2022-07-25T08:36:49.846Z,32.72
2022-07-25T08:39:21.857Z,31.86
2022-07-25T08:41:49.586Z,32.47
2022-07-25T08:44:22.905Z,30.99
2022-07-25T08:46:50.075Z,31.18
2022-07-25T08:49:17.335Z,30.43
2022-07-25T08:51:47.651Z,30.52
2022-07-25T08:54:18.805Z,30.48
2022-07-25T08:56:49.857Z,29.74
2022-07-25T08:59:21.816Z,29.36
2022-07-25T09:01:48.540Z,29.02
2022-07-25T09:04:15.387Z,29.08
2022-07-25T09:06:52.558Z,29.22
2022-07-25T09:09:19.552Z,29.10
2022-07-25T09:11:46.153Z,28.73
2022-07-25T09:14:15.345Z,28.47
2022-07-25T09:16:44.629Z,28.15
2022-07-25T09:19:15.834Z,27.81
2022-07-25T09:21:45.410Z,27.39
2022-07-25T09:24:16.069Z,27.56
2022-07-25T09:26:51.594Z,27.65
2022-07-25T09:29:26.460Z,27.89
2022-07-25T09:31:56.505Z,26.98
2022-07-25T09:34:31.957Z,27.10
2022-07-25T09:36:58.692Z,27.42
2022-07-25T09:39:48.259Z,27.53
2022-07-25T09:42:34.010Z,27.07
2022-07-25T09:45:12.964Z,26.96
2022-07-25T09:47:54.530Z,26.45
2022-07-25T09:50:23.189Z,26.50
2022-07-25T09:52:55.581Z,26.24
2022-07-25T09:55:26.957Z,26.17
2022-07-25T09:57:54.601Z,26.16
2022-07-25T10:00:30.091Z,25.68
2022-07-25T10:03:20.699Z,26.75
2022-07-25T10:06:00.167Z,25.65
2022-07-25T10:08:27.624Z,25.62
2022-07-25T10:10:54.538Z,25.87
2022-07-25T10:13:38.010Z,26.06
2022-07-25T10:16:15.687Z,25.79
2022-07-25T10:18:59.625Z,25.80
2022-07-25T10:21:28.537Z,25.49
2022-07-25T10:24:01.673Z,25.94
2022-07-25T10:26:28.855Z,25.06
2022-07-25T10:29:19.905Z,25.72
2022-07-25T10:31:52.272Z,25.67
2022-07-25T10:34:30.986Z,24.71
2022-07-25T10:37:10.247Z,25.13
2022-07-25T10:39:42.452Z,24.59
2022-07-25T10:42:14.712Z,24.93
2022-07-25T10:44:50.170Z,24.72
2022-07-25T10:47:23.053Z,24.70
2022-07-25T10:50:16.872Z,24.87
2022-07-25T10:52:48.627Z,24.45
2022-07-25T10:58:17.906Z,23.83
2022-07-25T11:00:45.352Z,23.67
2022-07-25T11:03:18.580Z,23.49
2022-07-25T11:05:56.079Z,23.38
2022-07-25T11:08:56.491Z,23.43
2022-07-25T11:11:46.902Z,23.80
2022-07-25T11:14:23.957Z,23.57
2022-07-25T11:16:52.805Z,24.04
2022-07-25T11:19:24.455Z,23.48
2022-07-25T11:22:14.942Z,23.52
2022-07-25T11:24:44.705Z,23.43
2022-07-25T11:27:28.205Z,23.17
2022-07-25T11:30:16.365Z,23.11
2022-07-25T11:32:45.692Z,23.20
2022-07-25T11:35:14.818Z,23.24
2022-07-25T11:37:44.716Z,23.78
2022-07-25T11:40:11.656Z,23.48
2022-07-25T11:42:43.439Z,23.29
2022-07-25T11:45:40.007Z,23.27
2022-07-25T11:48:14.714Z,23.03
2022-07-25T11:50:44.178Z,22.72
2022-07-25T11:53:18.648Z,22.90
2022-07-25T11:55:47.528Z,22.58
2022-07-25T11:58:14.684Z,22.62
2022-07-25T12:00:48.277Z,22.25
2022-07-25T12:03:20.238Z,21.87
2022-07-25T12:05:51.627Z,22.61
2022-07-25T12:08:20.708Z,22.20
2022-07-25T12:10:51.553Z,22.64
2022-07-25T12:13:27.239Z,22.08
2022-07-25T12:15:58.763Z,21.71
2022-07-25T12:18:26.016Z,21.93
2022-07-25T12:20:55.528Z,21.32
2022-07-25T12:23:22.760Z,21.45
2022-07-25T12:25:52.668Z,20.75
2022-07-25T12:28:19.638Z,21.52
2022-07-25T12:30:50.498Z,20.69
2022-07-25T12:33:19.975Z,21.17
2022-07-25T12:35:46.725Z,21.16
2022-07-25T12:38:14.387Z,20.67
2022-07-25T12:40:41.165Z,20.97
2022-07-25T12:43:08.030Z,20.60
2022-07-25T12:45:34.709Z,21.08
2022-07-25T12:48:01.523Z,21.25
2022-07-25T12:50:28.282Z,21.03
2022-07-25T12:52:55.099Z,21.31
2022-07-25T12:55:21.922Z,21.21
2022-07-25T12:57:49.321Z,20.83
2022-07-25T13:00:18.919Z,20.22
2022-07-25T13:02:49.015Z,20.07
2022-07-25T13:05:18.682Z,18.93
2022-07-25T13:07:47.633Z,19.19
2022-07-25T13:10:14.559Z,18.60
2022-07-25T13:12:43.779Z,18.21
2022-07-25T13:15:11.034Z,18.39
2022-07-25T13:17:40.345Z,18.67
2022-07-25T13:20:07.748Z,18.78
2022-07-25T13:22:34.430Z,18.55
2022-07-25T13:25:03.432Z,18.38
2022-07-25T13:27:30.170Z,18.79
2022-07-25T13:29:59.885Z,18.63
2022-07-25T13:32:28.456Z,18.86
2022-07-25T13:34:55.636Z,19.11
2022-07-25T13:37:22.410Z,19.17
2022-07-25T13:39:49.369Z,18.93
2022-07-25T13:42:16.087Z,19.04
2022-07-25T13:44:43.190Z,17.21
2022-07-25T13:47:09.970Z,17.48
2022-07-25T13:49:37.157Z,17.69
2022-07-25T13:52:04.070Z,17.36
2022-07-25T13:54:30.844Z,17.13
2022-07-25T13:56:57.630Z,17.52
2022-07-25T13:59:24.311Z,17.57
2022-07-25T14:01:51.204Z,17.41
2022-07-25T14:04:18.216Z,17.60
2022-07-25T14:06:44.969Z,17.31
2022-07-25T14:09:11.799Z,17.83
2022-07-25T14:11:38.730Z,17.54
2022-07-25T14:14:05.322Z,17.67
2022-07-25T14:16:33.822Z,17.50
2022-07-25T14:19:01.286Z,17.95
2022-07-25T14:21:28.167Z,18.25
2022-07-25T14:23:54.812Z,18.03
2022-07-25T14:26:21.513Z,18.23
2022-07-25T14:28:48.255Z,18.04
2022-07-25T14:31:15.126Z,18.06
2022-07-25T14:33:41.868Z,19.06
2022-07-25T14:36:10.406Z,19.03
2022-07-25T14:38:37.347Z,19.53
2022-07-25T14:41:12.078Z,19.86
2022-07-25T14:43:41.671Z,20.11
2022-07-25T14:46:12.262Z,20.27
2022-07-25T14:48:39.206Z,21.06
2022-07-25T14:51:06.638Z,20.84
2022-07-25T14:53:34.643Z,21.69
2022-07-25T14:56:03.735Z,22.25
2022-07-25T14:58:30.593Z,21.96
2022-07-25T15:00:57.310Z,22.14
2022-07-25T15:03:23.995Z,22.75
2022-07-25T15:05:50.714Z,22.90
2022-07-25T15:08:19.653Z,22.84
2022-07-25T15:10:46.174Z,22.84
2022-07-25T15:13:30.345Z,22.73
2022-07-25T15:15:58.758Z,22.72
2022-07-25T15:18:25.833Z,22.91
2022-07-25T15:20:52.603Z,23.23
2022-07-25T15:23:21.070Z,23.35
2022-07-25T15:26:04.467Z,23.15
2022-07-25T15:28:36.861Z,22.73
2022-07-25T15:31:05.529Z,20.99
2022-07-25T15:33:33.833Z,19.21
2022-07-25T15:36:01.061Z,18.17
2022-07-25T15:38:28.994Z,16.99
2022-07-25T15:40:55.891Z,18.01
2022-07-25T15:43:22.674Z,17.96
2022-07-25T15:45:50.066Z,17.91
2022-07-25T15:48:17.565Z,19.47
2022-07-25T15:50:49.357Z,20.48
2022-07-25T15:53:19.238Z,22.12
2022-07-25T15:55:46.037Z,22.44
2022-07-25T15:58:12.989Z,22.62
2022-07-25T16:00:41.265Z,23.71
2022-07-25T16:03:08.077Z,24.18
2022-07-25T16:05:35.814Z,24.36
2022-07-25T16:08:05.376Z,25.01
2022-07-25T16:10:36.227Z,25.15
2022-07-25T16:13:03.094Z,25.50
2022-07-25T16:15:29.744Z,24.82
2022-07-25T16:18:01.695Z,25.55
2022-07-25T16:20:29.386Z,25.25
2022-07-25T16:22:57.894Z,25.55
2022-07-25T16:25:26.017Z,25.63
2022-07-25T16:28:19.044Z,25.82
2022-07-25T16:30:46.091Z,26.02
2022-07-25T16:33:12.938Z,26.11
2022-07-25T16:35:39.698Z,25.59
2022-07-25T16:38:06.547Z,25.83
2022-07-25T16:40:33.339Z,25.19
2022-07-25T16:43:00.105Z,25.10
2022-07-25T16:45:27.128Z,24.91
2022-07-25T16:47:53.915Z,24.93
2022-07-25T16:50:20.897Z,25.00
2022-07-25T16:52:48.414Z,25.15
2022-07-25T16:55:15.134Z,24.85
2022-07-25T16:57:41.805Z,24.66
2022-07-25T17:00:10.158Z,25.01
2022-07-25T17:02:37.114Z,24.52
2022-07-25T17:05:07.089Z,24.79
2022-07-25T17:07:34.161Z,24.81
2022-07-25T17:10:04.503Z,24.51
2022-07-25T17:12:31.581Z,24.54
2022-07-25T17:15:07.618Z,25.30
2022-07-25T17:17:34.350Z,25.27
2022-07-25T17:20:01.007Z,25.89
2022-07-25T17:22:27.696Z,26.44
2022-07-25T17:24:54.313Z,26.69
2022-07-25T17:27:21.137Z,27.25
2022-07-25T17:29:47.871Z,27.13
2022-07-25T17:32:14.701Z,27.49
2022-07-25T17:34:41.563Z,28.06
2022-07-25T17:37:08.925Z,28.17
2022-07-25T17:39:38.087Z,28.40
2022-07-25T17:42:07.637Z,28.37
2022-07-25T17:44:35.171Z,27.95
2022-07-25T17:47:03.472Z,28.41
2022-07-25T17:49:30.391Z,28.34
2022-07-25T17:51:57.034Z,28.67
2022-07-25T17:54:23.756Z,28.55
2022-07-25T17:56:53.541Z,29.15
2022-07-25T17:59:20.175Z,29.34
2022-07-25T18:01:46.839Z,29.53
2022-07-25T18:04:14.430Z,29.91
2022-07-25T18:06:43.614Z,29.88
2022-07-25T18:09:10.152Z,30.39
2022-07-25T18:11:36.796Z,29.86
2022-07-25T18:14:03.403Z,30.14
2022-07-25T18:16:30.047Z,29.95
2022-07-25T18:18:58.605Z,29.72
2022-07-25T18:21:25.353Z,30.34
2022-07-25T18:23:52.197Z,30.41
2022-07-25T18:26:18.989Z,29.89
2022-07-25T18:28:45.742Z,30.51
2022-07-25T18:31:12.606Z,30.88
2022-07-25T18:33:41.825Z,30.88
2022-07-25T18:36:08.500Z,31.63
2022-07-25T18:38:36.380Z,31.75
2022-07-25T18:41:28.093Z,31.35
2022-07-25T18:43:53.193Z,31.77
2022-07-25T18:46:20.598Z,31.18
2022-07-25T18:48:52.195Z,32.37
2022-07-25T18:51:20.579Z,31.91
2022-07-25T18:53:48.473Z,32.99
2022-07-25T18:56:16.493Z,32.85
2022-07-25T18:58:43.935Z,32.13
2022-07-25T19:01:10.925Z,32.73
2022-07-25T19:03:38.291Z,32.93
2022-07-25T19:06:09.077Z,32.89
2022-07-25T19:08:36.128Z,32.67
2022-07-25T19:11:07.009Z,33.84
2022-07-25T19:13:49.545Z,34.27
2022-07-25T19:16:18.423Z,34.25
2022-07-25T19:18:45.427Z,33.93
2022-07-25T19:21:12.264Z,34.32
2022-07-25T19:23:39.006Z,33.75
2022-07-25T19:26:06.309Z,34.14
2022-07-25T19:28:33.046Z,34.22
2022-07-25T19:31:01.107Z,34.54
2022-07-25T19:33:35.742Z,35.77
2022-07-25T19:36:04.260Z,34.71
2022-07-25T19:38:33.412Z,35.68
2022-07-25T19:41:02.329Z,35.61
2022-07-25T19:43:29.220Z,37.61
2022-07-25T19:45:56.179Z,38.43
2022-07-25T19:48:26.061Z,38.98
2022-07-25T19:50:53.218Z,39.12
2022-07-25T19:53:26.803Z,39.37
2022-07-25T19:55:55.138Z,41.07
2022-07-25T19:58:21.890Z,40.12
2022-07-25T20:00:48.515Z,42.06
2022-07-25T20:03:15.699Z,41.28
2022-07-25T20:05:42.569Z,42.17
2022-07-25T20:08:09.200Z,41.44
2022-07-25T20:10:36.021Z,42.27
2022-07-25T20:13:02.807Z,42.23
2022-07-25T20:15:29.537Z,42.37
2022-07-25T20:17:57.016Z,42.20
2022-07-25T20:20:23.981Z,43.05
2022-07-25T20:22:53.368Z,41.74
2022-07-25T20:25:22.600Z,39.69
2022-07-25T20:27:49.957Z,39.14
2022-07-25T20:30:17.661Z,39.05
2022-07-25T20:32:44.429Z,38.61
2022-07-25T20:35:13.727Z,38.36
2022-07-25T20:37:42.855Z,38.05
2022-07-25T20:40:10.567Z,37.85
2022-07-25T20:42:37.427Z,38.10
2022-07-25T20:45:08.654Z,37.92
2022-07-25T20:47:35.490Z,37.88
2022-07-25T20:50:05.667Z,37.63
2022-07-25T20:52:36.171Z,37.56
2022-07-25T20:55:06.702Z,37.56
2022-07-25T20:57:37.008Z,37.82
2022-07-25T21:00:05.334Z,38.09
2022-07-25T21:02:39.797Z,38.22
2022-07-25T21:05:06.998Z,38.67
2022-07-25T21:07:36.328Z,38.65
2022-07-25T21:10:03.173Z,39.09
2022-07-25T21:12:32.781Z,39.19
2022-07-25T21:15:01.184Z,40.41
2022-07-25T21:17:28.328Z,41.28
2022-07-25T21:19:58.181Z,41.66
2022-07-25T21:22:25.458Z,43.46
2022-07-25T21:24:53.606Z,43.60
2022-07-25T21:27:20.437Z,44.09
2022-07-25T21:29:47.045Z,45.02
2022-07-25T21:32:17.442Z,45.75
2022-07-25T21:34:45.834Z,45.53
2022-07-25T21:37:13.145Z,46.44
2022-07-25T21:39:39.826Z,46.92
2022-07-25T21:42:10.093Z,46.45
2022-07-25T21:44:39.045Z,47.99
2022-07-25T21:47:05.956Z,47.84
2022-07-25T21:49:51.355Z,47.73
2022-07-25T21:52:20.806Z,48.66
2022-07-25T21:54:56.999Z,49.39
2022-07-25T21:57:23.610Z,48.88
2022-07-25T21:59:50.332Z,50.28
2022-07-25T22:02:18.206Z,50.78
2022-07-25T22:04:44.820Z,50.74
2022-07-25T22:07:13.871Z,50.77
2022-07-25T22:09:42.892Z,50.19
2022-07-25T22:12:09.896Z,50.70
2022-07-25T22:14:38.930Z,50.41
2022-07-25T22:17:05.935Z,51.20
2022-07-25T22:19:37.109Z,50.45
2022-07-25T22:22:05.973Z,50.71
2022-07-25T22:24:33.040Z,50.26
2022-07-25T22:26:59.966Z,50.50
2022-07-25T22:29:29.152Z,51.07
2022-07-25T22:31:58.147Z,51.50
2022-07-25T22:34:24.907Z,50.96
2022-07-25T22:36:51.458Z,51.01
2022-07-25T22:39:18.109Z,51.85
2022-07-25T22:41:45.158Z,52.59
2022-07-25T22:44:11.867Z,52.39
2022-07-25T22:46:38.530Z,51.86
2022-07-25T22:49:05.609Z,51.16
2022-07-25T22:51:32.551Z,51.58
2022-07-25T22:54:01.753Z,51.14
2022-07-25T22:56:29.269Z,51.39
2022-07-25T22:58:55.972Z,51.50
2022-07-25T23:01:23.099Z,52.64
2022-07-25T23:03:50.503Z,52.91
2022-07-25T23:06:20.495Z,53.23
2022-07-25T23:08:48.649Z,51.96
2022-07-25T23:11:15.352Z,53.23
2022-07-25T23:13:42.086Z,51.88
2022-07-25T23:16:11.274Z,51.94
2022-07-25T23:18:40.779Z,52.99
2022-07-25T23:21:12.616Z,52.16
2022-07-25T23:23:39.262Z,52.33
2022-07-25T23:26:05.925Z,53.29
2022-07-25T23:28:32.832Z,52.70
2022-07-25T23:30:59.540Z,53.52
2022-07-25T23:33:31.960Z,54.38
2022-07-25T23:35:59.108Z,53.70
2022-07-25T23:38:26.712Z,53.42
2022-07-25T23:40:55.815Z,53.16
2022-07-25T23:43:56.177Z,54.16
2022-07-25T23:46:14.441Z,54.43
2022-07-25T23:48:41.869Z,53.99
2022-07-25T23:51:08.589Z,53.45
2022-07-25T23:53:38.421Z,53.51
2022-07-25T23:56:05.228Z,55.04
2022-07-25T23:58:34.434Z,54.28
